createdAt,value
2024-01-16T00:00:25.897Z,99253.59
2024-01-16T00:03:27.539Z,99241.94
2024-01-16T00:06:29.197Z,99257.13
2024-01-16T00:09:33.421Z,99247.16
2024-01-16T00:12:34.933Z,99262.56
2024-01-16T00:15:36.597Z,99257.34
2024-01-16T00:18:38.302Z,99274.59
2024-01-16T00:21:44.087Z,99272.75
2024-01-16T00:24:45.602Z,99283.75
2024-01-16T00:27:47.546Z,99290.38
2024-01-16T00:30:49.106Z,99287.84
2024-01-16T00:33:50.941Z,99288.88
2024-01-16T00:36:52.755Z,99292.41
2024-01-16T00:39:54.332Z,99290.75
2024-01-16T00:42:55.897Z,99291.56
2024-01-16T00:45:57.523Z,99305.28
2024-01-16T00:48:59.137Z,99297.16
2024-01-16T00:52:00.761Z,99308.00
2024-01-16T00:55:02.413Z,99304.44
2024-01-16T00:58:04.229Z,99309.69
2024-01-16T01:01:05.895Z,99305.13
2024-01-16T01:04:07.621Z,99313.25
2024-01-16T01:07:11.693Z,99320.34
2024-01-16T01:10:13.464Z,99330.31
2024-01-16T01:13:15.102Z,99332.19
2024-01-16T01:16:16.778Z,99336.78
2024-01-16T01:19:19.129Z,99337.78
2024-01-16T01:22:20.727Z,99344.22
2024-01-16T01:25:22.899Z,99349.81
2024-01-16T01:28:24.557Z,99356.25
2024-01-16T01:31:27.209Z,99351.69
2024-01-16T01:34:28.944Z,99359.34
2024-01-16T01:37:30.517Z,99367.47
2024-01-16T01:40:32.115Z,99369.31
2024-01-16T01:43:33.649Z,99374.75
2024-01-16T01:46:36.552Z,99372.19
2024-01-16T01:49:38.761Z,99370.53
2024-01-16T01:52:41.938Z,99378.66
2024-01-16T01:55:43.851Z,99384.91
2024-01-16T01:58:48.344Z,99382.88
2024-01-16T02:01:53.755Z,99381.00
2024-01-16T02:04:55.524Z,99388.91
2024-01-16T02:07:57.239Z,99388.09
2024-01-16T02:10:58.860Z,99389.97
2024-01-16T02:14:00.385Z,99393.69
2024-01-16T02:17:01.934Z,99384.53
2024-01-16T02:20:03.846Z,99387.41
2024-01-16T02:23:07.294Z,99396.56
2024-01-16T02:26:09.091Z,99403.03
2024-01-16T02:29:10.870Z,99407.75
2024-01-16T02:32:14.257Z,99415.03
2024-01-16T02:35:16.728Z,99418.75
2024-01-16T02:38:18.365Z,99411.47
2024-01-16T02:41:20.153Z,99413.34
2024-01-16T02:44:21.803Z,99413.53
2024-01-16T02:47:23.475Z,99425.38
2024-01-16T02:50:25.087Z,99427.25
2024-01-16T02:53:26.879Z,99423.81
2024-01-16T02:56:28.506Z,99414.72
2024-01-16T02:59:31.739Z,99418.09
2024-01-16T03:02:33.334Z,99420.78
2024-01-16T03:05:35.065Z,99428.91
2024-01-16T03:08:36.798Z,99432.28
2024-01-16T03:11:38.544Z,99440.41
2024-01-16T03:14:40.327Z,99433.13
2024-01-16T03:17:42.199Z,99441.44
2024-01-16T03:20:44.399Z,99438.75
2024-01-16T03:23:46.113Z,99438.06
2024-01-16T03:26:48.070Z,99438.06
2024-01-16T03:29:49.787Z,99448.19
2024-01-16T03:32:51.422Z,99447.53
2024-01-16T03:35:53.705Z,99445.00
2024-01-16T03:38:55.402Z,99447.03
2024-01-16T03:41:57.200Z,99448.91
2024-01-16T03:44:58.846Z,99449.75
2024-01-16T03:48:00.637Z,99452.63
2024-01-16T03:51:03.690Z,99453.66
2024-01-16T03:54:05.310Z,99466.16
2024-01-16T03:57:06.916Z,99466.00
2024-01-16T04:00:11.546Z,99471.22
2024-01-16T04:03:14.194Z,99467.66
2024-01-16T04:06:19.389Z,99480.84
2024-01-16T04:09:21.083Z,99479.16
2024-01-16T04:12:23.069Z,99474.59
2024-01-16T04:15:24.682Z,99478.31
2024-01-16T04:18:26.363Z,99475.63
2024-01-16T04:21:27.995Z,99482.03
2024-01-16T04:24:29.540Z,99479.31
2024-01-16T04:27:31.308Z,99479.53
2024-01-16T04:30:32.970Z,99485.28
2024-01-16T04:33:34.843Z,99495.25
2024-01-16T04:36:36.652Z,99490.19
2024-01-16T04:39:38.201Z,99486.66
2024-01-16T04:42:39.919Z,99488.50
2024-01-16T04:45:41.818Z,99474.97
2024-01-16T04:48:43.948Z,99484.97
2024-01-16T04:51:45.511Z,99486.81
2024-01-16T04:54:47.161Z,99480.41
2024-01-16T04:57:48.696Z,99486.47
2024-01-16T05:00:50.319Z,99492.53
2024-01-16T05:03:51.897Z,99490.88
2024-01-16T05:06:53.699Z,99481.06
2024-01-16T05:09:56.256Z,99488.16
2024-01-16T05:12:57.849Z,99491.91
2024-01-16T05:15:59.411Z,99488.31
2024-01-16T05:19:01.069Z,99491.22
2024-01-16T05:22:02.659Z,99490.38
2024-01-16T05:25:04.520Z,99492.22
2024-01-16T05:28:06.156Z,99487.84
2024-01-16T05:31:08.532Z,99492.56
2024-01-16T05:34:11.180Z,99503.41
2024-01-16T05:37:13.026Z,99487.34
2024-01-16T05:40:14.580Z,99490.22
2024-01-16T05:43:16.213Z,99493.78
2024-01-16T05:46:17.770Z,99494.59
2024-01-16T05:49:19.399Z,99503.59
2024-01-16T05:52:21.944Z,99495.47
2024-01-16T05:55:23.582Z,99499.50
2024-01-16T05:58:25.204Z,99504.75
2024-01-16T06:01:28.452Z,99516.06
2024-01-16T06:04:30.951Z,99514.88
2024-01-16T06:07:32.575Z,99515.38
2024-01-16T06:10:34.068Z,99515.75
2024-01-16T06:13:35.726Z,99514.34
2024-01-16T06:16:37.327Z,99516.91
2024-01-16T06:19:39.018Z,99516.72
2024-01-16T06:22:40.644Z,99517.56
2024-01-16T06:25:42.234Z,99511.13
2024-01-16T06:28:43.939Z,99511.81
2024-01-16T06:31:45.513Z,99509.56
2024-01-16T06:34:47.054Z,99506.69
2024-01-16T06:37:48.730Z,99518.22
2024-01-16T06:40:50.260Z,99516.50
2024-01-16T06:43:54.532Z,99520.06
2024-01-16T06:46:56.116Z,99525.50
2024-01-16T06:49:57.736Z,99526.69
2024-01-16T06:52:59.306Z,99525.81
2024-01-16T06:56:00.874Z,99528.22
2024-01-16T06:59:02.399Z,99520.28
2024-01-16T07:02:04.582Z,99519.59
2024-01-16T07:05:06.437Z,99519.78
2024-01-16T07:08:09.185Z,99526.22
2024-01-16T07:11:14.243Z,99533.66
2024-01-16T07:14:15.843Z,99530.94
2024-01-16T07:17:17.596Z,99534.81
2024-01-16T07:20:19.204Z,99532.28
2024-01-16T07:23:20.881Z,99532.97
2024-01-16T07:26:23.936Z,99539.91
2024-01-16T07:29:25.608Z,99537.03
2024-01-16T07:32:28.413Z,99536.00
2024-01-16T07:35:31.052Z,99545.00
2024-01-16T07:38:33.134Z,99543.13
2024-01-16T07:41:35.048Z,99540.44
2024-01-16T07:44:38.105Z,99542.09
2024-01-16T07:47:39.816Z,99539.59
2024-01-16T07:50:41.475Z,99544.13
2024-01-16T07:53:43.122Z,99545.16
2024-01-16T07:56:44.829Z,99546.19
2024-01-16T07:59:46.437Z,99555.47
2024-01-16T08:02:48.456Z,99547.19
2024-01-16T08:05:50.110Z,99545.31
2024-01-16T08:08:51.943Z,99547.72
2024-01-16T08:11:53.596Z,99554.44
2024-01-16T08:14:55.456Z,99561.38
2024-01-16T08:17:57.212Z,99558.31
2024-01-16T08:20:58.978Z,99550.88
2024-01-16T08:24:00.980Z,99555.09
2024-01-16T08:27:03.950Z,99554.72
2024-01-16T08:30:08.166Z,99554.22
2024-01-16T08:33:10.100Z,99554.06
2024-01-16T08:36:11.936Z,99560.16
2024-01-16T08:39:14.662Z,99563.34
2024-01-16T08:42:19.368Z,99557.56
2024-01-16T08:45:21.063Z,99554.84
2024-01-16T08:48:22.871Z,99558.41
2024-01-16T08:51:24.622Z,99554.31
2024-01-16T08:54:27.450Z,99551.44
2024-01-16T08:57:31.007Z,99553.97
2024-01-16T09:00:32.927Z,99548.53
2024-01-16T09:03:35.549Z,99556.50
2024-01-16T09:06:37.295Z,99552.97
2024-01-16T09:09:39.077Z,99551.94
2024-01-16T09:12:40.661Z,99549.22
2024-01-16T09:15:42.330Z,99547.34
2024-01-16T09:18:44.091Z,99550.72
2024-01-16T09:21:45.871Z,99547.00
2024-01-16T09:24:47.726Z,99542.25
2024-01-16T09:27:49.276Z,99555.78
2024-01-16T09:30:51.441Z,99561.03
2024-01-16T09:33:53.159Z,99554.78
2024-01-16T09:36:54.741Z,99557.50
2024-01-16T09:39:56.329Z,99555.78
2024-01-16T09:42:57.902Z,99558.13
2024-01-16T09:46:03.578Z,99556.94
2024-01-16T09:49:05.748Z,99561.53
2024-01-16T09:52:07.468Z,99567.78
2024-01-16T09:55:09.309Z,99574.06
2024-01-16T09:58:15.468Z,99564.75
2024-01-16T10:01:17.516Z,99565.75
2024-01-16T10:04:19.414Z,99570.31
2024-01-16T10:07:26.900Z,99571.34
2024-01-16T10:10:38.578Z,99559.66
2024-01-16T10:13:51.913Z,99567.44
2024-01-16T10:17:06.500Z,99564.38
2024-01-16T10:20:14.356Z,99558.97
2024-01-16T10:23:27.401Z,99569.28
2024-01-16T10:26:29.014Z,99565.69
2024-01-16T10:29:43.295Z,99574.13
2024-01-16T10:32:54.483Z,99573.28
2024-01-16T10:36:18.685Z,99573.81
2024-01-16T10:39:20.312Z,99571.09
2024-01-16T10:42:21.911Z,99560.25
2024-01-16T10:45:23.630Z,99571.09
2024-01-16T10:48:25.323Z,99575.66
2024-01-16T10:51:28.847Z,99574.63
2024-01-16T10:54:31.400Z,99577.50
2024-01-16T10:57:33.585Z,99571.09
2024-01-16T11:00:40.643Z,99571.72
2024-01-16T11:03:53.991Z,99572.59
2024-01-16T11:06:56.222Z,99571.72
2024-01-16T11:09:58.128Z,99581.75
2024-01-16T11:13:03.101Z,99578.19
2024-01-16T11:16:05.631Z,99578.34
2024-01-16T11:19:24.998Z,99573.81
2024-01-16T11:22:31.046Z,99588.19
2024-01-16T11:25:35.768Z,99585.28
2024-01-16T11:28:37.723Z,99582.94
2024-01-16T11:31:39.367Z,99587.53
2024-01-16T11:34:43.896Z,99574.81
2024-01-16T11:37:46.262Z,99573.13
2024-01-16T11:40:48.783Z,99580.44
2024-01-16T11:43:53.272Z,99572.09
2024-01-16T11:47:01.607Z,99573.81
2024-01-16T11:50:14.130Z,99579.38
2024-01-16T11:53:38.562Z,99579.22
2024-01-16T11:57:08.165Z,99588.34
2024-01-16T12:00:19.924Z,99573.13
2024-01-16T12:03:31.565Z,99584.66
2024-01-16T12:06:38.729Z,99580.91
2024-01-16T12:09:40.512Z,99578.66
2024-01-16T12:12:43.576Z,99586.28
2024-01-16T12:15:45.311Z,99583.19
2024-01-16T12:18:48.379Z,99580.31
2024-01-16T12:21:51.547Z,99580.16
2024-01-16T12:24:57.964Z,99574.38
2024-01-16T12:28:00.570Z,99579.59
2024-01-16T12:31:04.041Z,99579.59
2024-01-16T12:34:10.268Z,99577.53
2024-01-16T12:37:13.713Z,99579.41
2024-01-16T12:40:15.723Z,99579.41
2024-01-16T12:43:19.525Z,99579.25
2024-01-16T12:46:21.248Z,99564.50
2024-01-16T12:49:26.647Z,99561.41
2024-01-16T12:52:30.978Z,99558.50
2024-01-16T12:55:34.042Z,99554.44
2024-01-16T12:58:37.274Z,99553.25
2024-01-16T13:01:43.073Z,99549.31
2024-01-16T13:04:44.871Z,99544.94
2024-01-16T13:07:47.595Z,99550.00
2024-01-16T13:11:03.169Z,99547.75
2024-01-16T13:14:04.823Z,99539.63
2024-01-16T13:17:07.697Z,99534.84
2024-01-16T13:20:11.742Z,99539.25
2024-01-16T13:23:15.325Z,99537.56
2024-01-16T13:26:17.759Z,99534.19
2024-01-16T13:29:20.525Z,99536.22
2024-01-16T13:32:22.688Z,99533.88
2024-01-16T13:35:24.333Z,99525.09
2024-01-16T13:38:26.021Z,99529.66
2024-01-16T13:41:28.788Z,99528.16
2024-01-16T13:44:30.548Z,99521.91
2024-01-16T13:47:32.434Z,99515.44
2024-01-16T13:50:34.332Z,99513.59
2024-01-16T13:53:36.386Z,99507.13
2024-01-16T13:56:51.611Z,99505.75
2024-01-16T14:00:00.376Z,99502.31
2024-01-16T14:03:04.406Z,99507.34
2024-01-16T14:06:08.291Z,99518.88
2024-01-16T14:09:10.856Z,99514.94
2024-01-16T14:12:13.204Z,99512.69
2024-01-16T14:15:17.386Z,99513.38
2024-01-16T14:18:19.104Z,99510.84
2024-01-16T14:21:20.812Z,99522.34
2024-01-16T14:24:22.700Z,99516.91
2024-01-16T14:27:26.036Z,99506.94
2024-01-16T14:30:28.068Z,99507.78
2024-01-16T14:33:29.867Z,99506.56
2024-01-16T14:36:31.506Z,99500.28
2024-01-16T14:39:33.106Z,99513.66
2024-01-16T14:42:35.302Z,99508.22
2024-01-16T14:45:36.888Z,99522.63
2024-01-16T14:48:45.910Z,99522.47
2024-01-16T14:51:48.100Z,99529.78
2024-01-16T14:54:51.149Z,99527.88
2024-01-16T14:58:00.972Z,99526.69
2024-01-16T15:01:02.653Z,99532.78
2024-01-16T15:04:07.241Z,99542.78
2024-01-16T15:07:09.055Z,99542.41
2024-01-16T15:10:16.360Z,99546.25
2024-01-16T15:13:18.029Z,99546.09
2024-01-16T15:16:19.855Z,99541.28
2024-01-16T15:19:21.848Z,99543.00
2024-01-16T15:22:23.453Z,99549.25
2024-01-16T15:25:25.759Z,99543.00
2024-01-16T15:28:27.363Z,99553.03
2024-01-16T15:31:30.389Z,99549.25
2024-01-16T15:34:31.980Z,99549.94
2024-01-16T15:37:34.607Z,99552.44
2024-01-16T15:40:36.173Z,99554.69
2024-01-16T15:43:38.137Z,99555.72
2024-01-16T15:47:03.034Z,99546.19
2024-01-16T15:50:06.113Z,99551.59
2024-01-16T15:53:07.694Z,99539.91
2024-01-16T15:56:09.988Z,99548.88
2024-01-16T15:59:12.297Z,99547.00
2024-01-16T16:02:13.916Z,99548.72
2024-01-16T16:05:15.650Z,99544.13
2024-01-16T16:08:17.367Z,99539.53
2024-01-16T16:11:18.985Z,99538.53
2024-01-16T16:14:20.987Z,99533.09
2024-01-16T16:17:22.723Z,99526.81
2024-01-16T16:20:25.823Z,99525.13
2024-01-16T16:23:27.534Z,99525.13
2024-01-16T16:26:32.681Z,99520.53
2024-01-16T16:29:34.270Z,99521.38
2024-01-16T16:32:36.012Z,99520.34
2024-01-16T16:35:37.861Z,99522.41
2024-01-16T16:38:42.344Z,99532.44
2024-01-16T16:41:44.254Z,99529.06
2024-01-16T16:44:45.932Z,99535.53
2024-01-16T16:47:47.496Z,99536.53
2024-01-16T16:50:49.782Z,99532.97
2024-01-16T16:53:51.768Z,99528.59
2024-01-16T16:56:55.601Z,99527.94
2024-01-16T16:59:57.417Z,99525.22
2024-01-16T17:02:59.073Z,99519.41
2024-01-16T17:06:01.675Z,99537.19
2024-01-16T17:09:07.484Z,99543.28
2024-01-16T17:12:09.208Z,99534.94
2024-01-16T17:15:12.110Z,99543.94
2024-01-16T17:18:13.857Z,99542.91
2024-01-16T17:21:17.433Z,99547.97
2024-01-16T17:24:19.355Z,99536.44
2024-01-16T17:27:21.923Z,99537.09
2024-01-16T17:30:23.948Z,99545.91
2024-01-16T17:33:26.867Z,99539.66
2024-01-16T17:36:29.769Z,99544.25
2024-01-16T17:39:31.714Z,99552.00
2024-01-16T17:42:33.308Z,99555.00
2024-01-16T17:45:34.987Z,99544.44
2024-01-16T17:48:37.153Z,99552.88
2024-01-16T17:51:39.609Z,99541.44
2024-01-16T17:54:41.179Z,99536.84
2024-01-16T17:57:42.871Z,99533.09
2024-01-16T18:00:44.459Z,99521.22
2024-01-16T18:03:48.727Z,99531.44
2024-01-16T18:06:50.944Z,99528.06
2024-01-16T18:09:52.538Z,99531.16
2024-01-16T18:12:54.089Z,99537.78
2024-01-16T18:15:58.185Z,99536.28
2024-01-16T18:18:59.852Z,99533.75
2024-01-16T18:22:03.136Z,99540.22
2024-01-16T18:25:09.662Z,99527.31
2024-01-16T18:28:11.298Z,99524.94
2024-01-16T18:31:13.981Z,99534.78
2024-01-16T18:34:21.261Z,99522.22
2024-01-16T18:37:22.961Z,99516.16
2024-01-16T18:40:25.677Z,99512.56
2024-01-16T18:43:29.089Z,99517.00
2024-01-16T18:46:34.061Z,99498.00
2024-01-16T18:49:35.730Z,99508.03
2024-01-16T18:52:42.754Z,99487.13
2024-01-16T18:55:44.507Z,99496.28
2024-01-16T18:58:47.136Z,99496.28
2024-01-16T19:01:50.918Z,99496.94
2024-01-16T19:04:52.510Z,99505.31
2024-01-16T19:07:54.794Z,99511.38
2024-01-16T19:10:57.574Z,99504.09
2024-01-16T19:13:59.093Z,99516.78
2024-01-16T19:17:00.691Z,99502.38
2024-01-16T19:20:10.456Z,99511.75
2024-01-16T19:23:12.077Z,99517.19
2024-01-16T19:26:15.297Z,99506.13
2024-01-16T19:29:18.283Z,99499.66
2024-01-16T19:32:19.930Z,99501.53
2024-01-16T19:35:21.738Z,99501.53
2024-01-16T19:38:23.571Z,99501.53
2024-01-16T19:41:25.370Z,99495.44
2024-01-16T19:44:27.017Z,99493.41
2024-01-16T19:47:29.787Z,99499.66
2024-01-16T19:50:32.376Z,99499.66
2024-01-16T19:53:38.958Z,99504.94
2024-01-16T19:56:43.430Z,99507.44
2024-01-16T19:59:45.501Z,99509.69
2024-01-16T20:02:47.640Z,99498.00
2024-01-16T20:05:49.334Z,99496.28
2024-01-16T20:08:53.173Z,99492.75
2024-01-16T20:12:00.144Z,99486.94
2024-01-16T20:15:04.529Z,99485.91
2024-01-16T20:18:10.170Z,99475.06
2024-01-16T20:21:12.200Z,99474.00
2024-01-16T20:24:13.847Z,99476.72
2024-01-16T20:27:15.425Z,99468.78
2024-01-16T20:30:17.604Z,99467.09
2024-01-16T20:33:19.667Z,99453.50
2024-01-16T20:36:21.508Z,99441.63
2024-01-16T20:39:23.388Z,99446.03
2024-01-16T20:42:24.929Z,99434.34
2024-01-16T20:45:26.880Z,99433.50
2024-01-16T20:48:33.820Z,99432.84
2024-01-16T20:51:35.949Z,99433.00
2024-01-16T20:54:40.668Z,99420.09
2024-01-16T20:57:43.912Z,99410.91
2024-01-16T21:00:46.523Z,99411.78
2024-01-16T21:03:49.233Z,99403.81
2024-01-16T21:06:51.021Z,99395.84
2024-01-16T21:09:52.702Z,99396.69
2024-01-16T21:12:54.291Z,99393.13
2024-01-16T21:15:57.665Z,99394.00
2024-01-16T21:18:59.319Z,99390.22
2024-01-16T21:22:01.461Z,99391.91
2024-01-16T21:25:03.230Z,99384.63
2024-01-16T21:28:04.804Z,99379.38
2024-01-16T21:31:07.421Z,99372.91
2024-01-16T21:34:09.529Z,99371.22
2024-01-16T21:37:11.059Z,99373.28
2024-01-16T21:40:12.597Z,99368.69
2024-01-16T21:43:14.843Z,99362.25
2024-01-16T21:46:17.745Z,99363.09
2024-01-16T21:49:19.419Z,99359.31
2024-01-16T21:52:21.523Z,99349.31
2024-01-16T21:55:23.145Z,99334.25
2024-01-16T21:58:24.686Z,99339.69
2024-01-16T22:01:26.427Z,99328.84
2024-01-16T22:04:28.499Z,99330.50
2024-01-16T22:07:30.145Z,99326.13
2024-01-16T22:10:31.655Z,99322.75
2024-01-16T22:13:33.246Z,99312.28
2024-01-16T22:16:35.576Z,99313.28
2024-01-16T22:19:37.520Z,99328.91
2024-01-16T22:22:41.769Z,99316.38
2024-01-16T22:25:43.381Z,99324.53
2024-01-16T22:28:45.948Z,99337.28
2024-01-16T22:31:47.646Z,99332.69
2024-01-16T22:34:49.198Z,99328.09
2024-01-16T22:37:50.825Z,99329.13
2024-01-16T22:40:52.407Z,99321.38
2024-01-16T22:43:55.546Z,99310.03
2024-01-16T22:46:57.601Z,99302.09
2024-01-16T22:50:00.051Z,99306.88
2024-01-16T22:53:03.628Z,99291.81
2024-01-16T22:56:05.558Z,99292.19
2024-01-16T22:59:08.303Z,99288.00
2024-01-16T23:02:11.188Z,99283.78
2024-01-16T23:05:21.024Z,99272.06
2024-01-16T23:08:22.880Z,99271.63
2024-01-16T23:11:25.078Z,99267.41
2024-01-16T23:14:26.861Z,99261.53
2024-01-16T23:17:28.547Z,99256.28
2024-01-16T23:20:31.785Z,99249.19
2024-01-16T23:23:33.418Z,99236.84
2024-01-16T23:26:36.100Z,99231.22
2024-01-16T23:29:39.111Z,99230.56
2024-01-16T23:32:40.862Z,99229.06
2024-01-16T23:35:44.430Z,99223.63
2024-01-16T23:38:46.259Z,99222.16
2024-01-16T23:41:47.886Z,99212.34
2024-01-16T23:44:50.064Z,99209.63
2024-01-16T23:47:53.135Z,99198.13
2024-01-16T23:50:55.072Z,99186.63
2024-01-16T23:53:57.036Z,99185.78
2024-01-16T23:56:59.591Z,99177.00
